Terminal Aerodrome Forecast
Issued by NWS Twin Cities, MN

Home | Current Version | Previous Version | Graphics & Text | Print | Product List | Glossary On
Versions: 1 2 3 4 5 6 7 8 9 10 11 12 13 14 15 16 17 18 19 20 21
131
FTUS43 KMPX 140257 AAA
TAFSTC
TAF AMD
KSTC 140257Z 1403/1424 35006KT P6SM SCT030 BKN060
     FM140600 34007KT P6SM BKN030
     FM141000 30005KT P6SM OVC015
     FM142000 31006KT P6SM BKN020=

USA.gov is the U.S. government's official web portal to all federal, state and local government web resources and services.